createdAt,value
2023-04-22T00:02:08.484Z,8.27
2023-04-22T00:04:38.458Z,8.33
2023-04-22T00:07:06.329Z,8.83
2023-04-22T00:09:34.185Z,8.40
2023-04-22T00:12:02.378Z,7.67
2023-04-22T00:14:30.335Z,8.67
2023-04-22T00:16:58.681Z,8.70
2023-04-22T00:19:26.747Z,8.77
2023-04-22T00:21:56.070Z,9.00
2023-04-22T00:24:23.837Z,8.70
2023-04-22T00:26:51.615Z,8.80
2023-04-22T00:29:19.359Z,9.57
2023-04-22T00:31:47.120Z,8.37
2023-04-22T00:34:14.985Z,8.80
2023-04-22T00:36:42.680Z,9.10
2023-04-22T00:39:12.208Z,8.73
2023-04-22T00:41:40.518Z,9.30
2023-04-22T00:44:10.214Z,8.30
2023-04-22T00:46:39.304Z,8.60
2023-04-22T00:49:07.554Z,7.77
2023-04-22T00:51:35.541Z,8.47
2023-04-22T00:54:04.714Z,7.60
2023-04-22T00:56:35.948Z,7.07
2023-04-22T00:59:03.859Z,8.10
2023-04-22T01:01:32.609Z,8.40
2023-04-22T01:04:01.342Z,8.20
2023-04-22T01:06:31.421Z,7.97
2023-04-22T01:08:59.777Z,8.03
2023-04-22T01:11:27.522Z,8.53
2023-04-22T01:13:56.757Z,7.80
2023-04-22T01:16:25.937Z,7.80
2023-04-22T01:18:54.323Z,8.00
2023-04-22T01:21:22.760Z,8.33
2023-04-22T01:23:52.130Z,7.83
2023-04-22T01:26:20.088Z,7.93
2023-04-22T01:28:47.959Z,8.07
2023-04-22T01:31:16.247Z,7.83
2023-04-22T01:33:44.347Z,7.97
2023-04-22T01:36:13.263Z,8.10
2023-04-22T01:38:41.420Z,7.87
2023-04-22T01:41:10.624Z,7.67
2023-04-22T01:43:39.747Z,8.10
2023-04-22T01:46:07.833Z,7.73
2023-04-22T01:48:35.899Z,7.80
2023-04-22T01:51:04.238Z,7.90
2023-04-22T01:53:32.013Z,7.33
2023-04-22T01:56:00.934Z,7.87
2023-04-22T01:58:31.743Z,6.97
2023-04-22T02:00:59.828Z,7.20
2023-04-22T02:03:27.734Z,7.57
2023-04-22T02:05:55.625Z,7.67
2023-04-22T02:08:23.464Z,7.63
2023-04-22T02:10:51.245Z,7.57
2023-04-22T02:13:19.116Z,7.17
2023-04-22T02:15:48.464Z,7.37
2023-04-22T02:18:18.992Z,8.00
2023-04-22T02:20:46.800Z,7.80
2023-04-22T02:23:14.577Z,7.47
2023-04-22T02:25:42.418Z,7.43
2023-04-22T02:28:10.205Z,6.80
2023-04-22T02:30:38.161Z,7.73
2023-04-22T02:33:07.657Z,7.47
2023-04-22T02:35:35.537Z,7.33
2023-04-22T02:38:03.261Z,7.33
2023-04-22T02:40:31.064Z,6.87
2023-04-22T02:42:58.938Z,7.47
2023-04-22T02:45:26.705Z,7.27
2023-04-22T02:47:54.517Z,7.00
2023-04-22T02:50:23.814Z,7.33
2023-04-22T02:52:52.003Z,7.00
2023-04-22T02:55:19.989Z,7.27
2023-04-22T02:57:47.801Z,7.00
2023-04-22T03:00:15.964Z,7.17
2023-04-22T03:02:43.886Z,7.50
2023-04-22T03:05:11.851Z,7.07
2023-04-22T03:07:41.254Z,7.30
2023-04-22T03:10:10.179Z,7.30
2023-04-22T03:12:38.035Z,6.80
2023-04-22T03:15:06.853Z,7.13
2023-04-22T03:17:34.683Z,7.23
2023-04-22T03:20:02.645Z,7.03
2023-04-22T03:22:30.560Z,6.77
2023-04-22T03:24:59.674Z,7.37
2023-04-22T03:27:27.452Z,6.97
2023-04-22T03:29:55.509Z,7.07
2023-04-22T03:32:23.653Z,7.10
2023-04-22T03:34:51.461Z,6.83
2023-04-22T03:37:19.423Z,7.73
2023-04-22T03:39:47.245Z,6.83
2023-04-22T03:42:16.423Z,8.23
2023-04-22T03:44:44.231Z,7.83
2023-04-22T03:47:11.963Z,7.70
2023-04-22T03:49:40.393Z,7.40
2023-04-22T03:52:08.477Z,7.53
2023-04-22T03:54:36.276Z,7.03
2023-04-22T03:57:04.080Z,7.37
2023-04-22T03:59:33.150Z,6.80
2023-04-22T04:02:00.916Z,7.20
2023-04-22T04:04:29.599Z,7.30
2023-04-22T04:06:57.801Z,7.67
2023-04-22T04:09:25.789Z,7.70
2023-04-22T04:11:53.556Z,6.93
2023-04-22T04:14:21.338Z,7.13
2023-04-22T04:16:50.532Z,7.27
2023-04-22T04:19:18.332Z,6.57
2023-04-22T04:21:46.064Z,6.73
2023-04-22T04:24:13.866Z,6.30
2023-04-22T04:26:41.614Z,6.47
2023-04-22T04:29:09.523Z,7.17
2023-04-22T04:31:37.330Z,6.77
2023-04-22T04:34:07.369Z,6.77
2023-04-22T04:36:35.309Z,6.97
2023-04-22T04:39:04.553Z,6.17
2023-04-22T04:41:33.278Z,6.30
2023-04-22T04:44:01.024Z,6.90
2023-04-22T04:46:29.648Z,6.60
2023-04-22T04:48:58.682Z,6.63
2023-04-22T04:51:27.787Z,6.33
2023-04-22T04:53:55.677Z,6.20
2023-04-22T04:56:23.693Z,6.47
2023-04-22T04:58:51.360Z,7.43
2023-04-22T05:01:19.408Z,6.50
2023-04-22T05:03:47.464Z,6.50
2023-04-22T05:06:16.623Z,6.30
2023-04-22T05:08:46.310Z,6.97
2023-04-22T05:11:14.129Z,6.50
2023-04-22T05:13:41.859Z,6.20
2023-04-22T05:16:09.650Z,6.90
2023-04-22T05:18:37.454Z,6.97
2023-04-22T05:21:05.413Z,6.67
2023-04-22T05:23:33.296Z,6.47
2023-04-22T05:26:02.507Z,6.30
2023-04-22T05:28:30.294Z,6.50
2023-04-22T05:30:58.665Z,5.90
2023-04-22T05:33:26.445Z,5.90
2023-04-22T05:35:55.046Z,6.03
2023-04-22T05:38:22.809Z,5.50
2023-04-22T05:40:50.602Z,5.93
2023-04-22T05:43:19.810Z,6.00
2023-04-22T05:45:47.768Z,5.67
2023-04-22T05:48:15.570Z,5.70
2023-04-22T05:50:43.328Z,5.67
2023-04-22T05:53:11.057Z,5.77
2023-04-22T05:55:38.854Z,5.33
2023-04-22T05:58:06.639Z,5.30
2023-04-22T06:00:35.809Z,5.97
2023-04-22T06:03:03.788Z,5.17
2023-04-22T06:05:31.954Z,5.47
2023-04-22T06:07:59.853Z,5.37
2023-04-22T06:10:27.720Z,5.33
2023-04-22T06:12:55.453Z,4.83
2023-04-22T06:15:23.317Z,4.77
2023-04-22T06:17:52.496Z,5.87
2023-04-22T06:20:21.622Z,5.00
2023-04-22T06:22:49.412Z,4.90
2023-04-22T06:25:17.189Z,4.80
2023-04-22T06:27:44.954Z,5.10
2023-04-22T06:30:13.104Z,4.63
2023-04-22T06:32:40.945Z,4.93
2023-04-22T06:35:10.668Z,4.97
2023-04-22T06:37:39.685Z,4.80
2023-04-22T06:40:09.128Z,4.33
2023-04-22T06:42:38.109Z,4.80
2023-04-22T06:45:06.651Z,4.60
2023-04-22T06:47:34.474Z,4.77
2023-04-22T06:50:03.442Z,4.43
2023-04-22T06:52:32.604Z,3.97
2023-04-22T06:55:00.304Z,4.40
2023-04-22T06:57:28.160Z,4.83
2023-04-22T06:59:55.991Z,4.30
2023-04-22T07:02:24.145Z,4.00
2023-04-22T07:04:51.976Z,4.27
2023-04-22T07:07:20.132Z,4.30
2023-04-22T07:09:49.411Z,4.57
2023-04-22T07:12:17.311Z,4.27
2023-04-22T07:14:45.599Z,4.43
2023-04-22T07:17:13.823Z,4.20
2023-04-22T07:19:41.897Z,4.23
2023-04-22T07:22:09.812Z,4.70
2023-04-22T07:24:38.652Z,4.60
2023-04-22T07:27:07.966Z,4.33
2023-04-22T07:29:35.840Z,4.23
2023-04-22T07:32:03.665Z,4.63
2023-04-22T07:34:31.428Z,4.20
2023-04-22T07:36:59.340Z,4.47
2023-04-22T07:39:27.443Z,4.40
2023-04-22T07:41:56.497Z,5.10
2023-04-22T07:44:25.700Z,4.83
2023-04-22T07:46:54.010Z,4.50
2023-04-22T07:49:21.877Z,4.70
2023-04-22T07:51:49.676Z,4.70
2023-04-22T07:54:17.489Z,4.87
2023-04-22T07:56:45.236Z,5.13
2023-04-22T07:59:12.990Z,4.67
2023-04-22T08:01:42.089Z,4.83
2023-04-22T08:04:10.255Z,4.57
2023-04-22T08:06:38.204Z,4.97
2023-04-22T08:09:06.038Z,4.23
2023-04-22T08:11:33.887Z,5.00
2023-04-22T08:14:02.653Z,4.90
2023-04-22T08:16:30.430Z,4.70
2023-04-22T08:18:59.571Z,4.40
2023-04-22T08:21:28.354Z,4.57
2023-04-22T08:23:56.129Z,5.07
2023-04-22T08:26:24.013Z,4.53
2023-04-22T08:28:51.820Z,4.10
2023-04-22T08:31:19.710Z,4.37
2023-04-22T08:33:49.921Z,4.30
2023-04-22T08:36:19.653Z,4.90
2023-04-22T08:38:48.916Z,4.40
2023-04-22T08:41:19.592Z,4.70
2023-04-22T08:43:47.466Z,4.53
2023-04-22T08:46:16.655Z,4.70
2023-04-22T08:48:44.553Z,4.57
2023-04-22T08:51:12.517Z,4.00
2023-04-22T08:53:41.756Z,4.37
2023-04-22T08:56:10.055Z,4.80
2023-04-22T08:58:37.836Z,4.67
2023-04-22T09:01:06.221Z,4.60
2023-04-22T09:03:35.562Z,5.17
2023-04-22T09:06:05.529Z,5.33
2023-04-22T09:08:33.774Z,7.50
2023-04-22T09:11:04.334Z,8.03
2023-04-22T09:13:32.107Z,5.40
2023-04-22T09:16:00.198Z,5.03
2023-04-22T09:18:28.047Z,5.20
2023-04-22T09:20:57.203Z,6.27
2023-04-22T09:23:25.319Z,5.13
2023-04-22T09:25:53.141Z,4.90
2023-04-22T09:28:22.323Z,4.77
2023-04-22T09:30:50.509Z,5.03
2023-04-22T09:33:18.434Z,4.73
2023-04-22T09:35:46.099Z,6.37
2023-04-22T09:38:14.367Z,5.10
2023-04-22T09:40:44.090Z,4.83
2023-04-22T09:43:12.681Z,5.30
2023-04-22T09:45:43.932Z,4.80
2023-04-22T09:48:13.002Z,5.27
2023-04-22T09:50:41.702Z,5.30
2023-04-22T09:53:11.273Z,5.97
2023-04-22T09:55:41.496Z,5.60
2023-04-22T09:58:12.546Z,5.80
2023-04-22T10:00:43.861Z,5.90
2023-04-22T10:03:11.848Z,5.37
2023-04-22T10:05:39.763Z,5.97
2023-04-22T10:08:08.826Z,6.33
2023-04-22T10:10:37.126Z,5.50
2023-04-22T10:13:05.388Z,5.60
2023-04-22T10:15:34.691Z,5.57
2023-04-22T10:18:04.958Z,5.20
2023-04-22T10:20:33.291Z,5.33
2023-04-22T10:23:01.093Z,5.67
2023-04-22T10:25:28.910Z,5.07
2023-04-22T10:28:03.495Z,5.77
2023-04-22T10:30:36.716Z,5.80
2023-04-22T10:33:40.497Z,6.43
2023-04-22T10:36:10.512Z,6.20
2023-04-22T10:38:39.310Z,6.30
2023-04-22T10:41:07.238Z,6.13
2023-04-22T10:43:46.144Z,6.30
2023-04-22T10:46:52.279Z,6.60
2023-04-22T10:49:22.997Z,6.60
2023-04-22T10:51:51.781Z,6.47
2023-04-22T10:54:57.564Z,6.73
2023-04-22T10:57:48.935Z,7.70
2023-04-22T11:00:42.166Z,6.73
2023-04-22T11:03:20.777Z,6.70
2023-04-22T11:05:50.133Z,6.80
2023-04-22T11:08:24.248Z,7.53
2023-04-22T11:10:53.851Z,7.17
2023-04-22T11:13:22.854Z,7.77
2023-04-22T11:15:54.167Z,7.23
2023-04-22T11:18:23.009Z,6.83
2023-04-22T11:20:53.604Z,7.00
2023-04-22T11:23:26.720Z,7.63
2023-04-22T11:25:58.648Z,7.70
2023-04-22T11:28:26.946Z,7.20
2023-04-22T11:30:55.146Z,6.93
2023-04-22T11:33:22.964Z,7.53
2023-04-22T11:35:53.017Z,7.70
2023-04-22T11:38:20.991Z,7.03
2023-04-22T11:40:49.098Z,8.20
2023-04-22T11:43:18.596Z,8.33
2023-04-22T11:45:46.598Z,7.70
2023-04-22T11:48:16.639Z,7.37
2023-04-22T11:50:45.450Z,7.90
2023-04-22T11:53:19.767Z,8.50
2023-04-22T11:55:51.007Z,9.20
2023-04-22T11:58:20.379Z,8.70
2023-04-22T12:00:49.657Z,9.87
2023-04-22T12:03:20.097Z,9.93
2023-04-22T12:05:49.447Z,10.03
2023-04-22T12:08:19.707Z,9.80
2023-04-22T12:10:48.760Z,8.40
2023-04-22T12:13:20.958Z,9.17
2023-04-22T12:15:49.408Z,9.70
2023-04-22T12:18:17.090Z,9.20
2023-04-22T12:20:44.838Z,8.23
2023-04-22T12:23:16.708Z,8.70
2023-04-22T12:25:45.856Z,7.93
2023-04-22T12:28:14.293Z,8.70
2023-04-22T12:30:42.388Z,8.63
2023-04-22T12:33:10.739Z,9.67
2023-04-22T12:35:38.748Z,9.50
2023-04-22T12:38:06.638Z,10.00
2023-04-22T12:40:34.467Z,9.97
2023-04-22T12:43:06.177Z,8.87
2023-04-22T12:45:34.175Z,8.63
2023-04-22T12:48:02.204Z,8.43
2023-04-22T12:50:30.055Z,8.13
2023-04-22T12:52:57.733Z,8.67
2023-04-22T12:55:26.050Z,7.10
2023-04-22T12:57:54.468Z,7.60
2023-04-22T13:00:25.577Z,7.63
2023-04-22T13:02:56.334Z,7.10
2023-04-22T13:05:24.295Z,7.40
2023-04-22T13:08:03.887Z,6.73
2023-04-22T13:10:34.911Z,7.57
2023-04-22T13:13:17.049Z,8.13
2023-04-22T13:15:47.756Z,8.03
2023-04-22T13:18:16.621Z,7.50
2023-04-22T13:20:44.527Z,7.07
2023-04-22T13:23:13.301Z,6.30
2023-04-22T13:25:41.204Z,7.00
2023-04-22T13:28:08.983Z,6.33
2023-04-22T13:30:37.263Z,7.40
2023-04-22T13:33:06.405Z,6.90
2023-04-22T13:35:34.133Z,6.77
2023-04-22T13:38:01.994Z,6.20
2023-04-22T13:40:29.782Z,5.77
2023-04-22T13:42:57.782Z,6.47
2023-04-22T13:45:26.576Z,5.60
2023-04-22T13:47:54.914Z,6.17
2023-04-22T13:50:24.529Z,5.53
2023-04-22T13:52:52.356Z,5.47
2023-04-22T13:55:20.504Z,5.40
2023-04-22T13:57:48.392Z,4.70
2023-04-22T14:00:16.634Z,4.93
2023-04-22T14:02:44.652Z,4.87
2023-04-22T14:05:12.553Z,5.00
2023-04-22T14:07:41.680Z,5.70
2023-04-22T14:10:12.159Z,5.90
2023-04-22T14:12:41.388Z,5.17
2023-04-22T14:15:11.138Z,5.03
2023-04-22T14:17:39.600Z,4.63
2023-04-22T14:20:08.808Z,4.60
2023-04-22T14:22:36.613Z,3.90
2023-04-22T14:25:06.629Z,4.03
2023-04-22T14:27:34.383Z,3.70
2023-04-22T14:30:04.391Z,3.40
2023-04-22T14:32:33.614Z,3.67
2023-04-22T14:35:01.468Z,4.67
2023-04-22T14:37:29.596Z,3.97
2023-04-22T14:39:57.469Z,4.13
2023-04-22T14:42:27.914Z,3.77
2023-04-22T14:44:56.159Z,3.40
2023-04-22T14:47:24.443Z,3.57
2023-04-22T14:49:52.369Z,3.33
2023-04-22T14:52:22.844Z,3.33
2023-04-22T14:54:52.082Z,3.43
2023-04-22T14:57:20.054Z,3.47
2023-04-22T14:59:49.297Z,3.20
2023-04-22T15:02:17.269Z,3.63
2023-04-22T15:04:45.787Z,2.90
2023-04-22T15:07:13.665Z,3.17
2023-04-22T15:09:42.012Z,3.20
2023-04-22T15:12:10.112Z,3.37
2023-04-22T15:14:38.029Z,3.23
2023-04-22T15:17:08.644Z,2.87
2023-04-22T15:19:36.770Z,2.80
2023-04-22T15:22:04.517Z,2.83
2023-04-22T15:24:32.338Z,2.70
2023-04-22T15:27:00.699Z,2.93
2023-04-22T15:29:29.051Z,3.17
2023-04-22T15:31:57.283Z,2.90
2023-04-22T15:34:26.675Z,2.60
2023-04-22T15:36:54.898Z,2.90
2023-04-22T15:39:22.672Z,2.80
2023-04-22T15:41:50.450Z,2.43
2023-04-22T15:44:18.220Z,2.73
2023-04-22T15:46:46.428Z,2.60
2023-04-22T15:49:14.855Z,2.50
2023-04-22T15:51:44.302Z,2.77
2023-04-22T15:54:12.732Z,3.03
2023-04-22T15:56:40.613Z,2.70
2023-04-22T15:59:08.409Z,2.47
2023-04-22T16:01:36.545Z,2.70
2023-04-22T16:04:04.898Z,2.67
2023-04-22T16:06:32.762Z,2.77
2023-04-22T16:09:01.957Z,2.33
2023-04-22T16:11:30.440Z,2.50
2023-04-22T16:13:58.300Z,3.20
2023-04-22T16:16:27.595Z,2.27
2023-04-22T16:18:58.003Z,2.67
2023-04-22T16:21:26.261Z,2.67
2023-04-22T16:23:54.075Z,2.43
2023-04-22T16:26:23.268Z,2.17
2023-04-22T16:28:51.132Z,2.63
2023-04-22T16:31:22.862Z,2.30
2023-04-22T16:33:51.438Z,2.50
2023-04-22T16:36:19.471Z,2.10
2023-04-22T16:38:47.202Z,2.20
2023-04-22T16:41:15.408Z,2.20
2023-04-22T16:43:44.554Z,2.17
2023-04-22T16:46:12.557Z,2.00
2023-04-22T16:48:40.486Z,2.40
2023-04-22T16:51:08.323Z,2.30
2023-04-22T16:53:36.458Z,1.93
2023-04-22T16:56:04.248Z,2.90
2023-04-22T16:58:32.024Z,3.20
2023-04-22T17:01:01.157Z,3.77
2023-04-22T17:03:28.986Z,4.70
2023-04-22T17:05:59.797Z,4.00
2023-04-22T17:08:27.810Z,3.83
2023-04-22T17:10:55.582Z,3.23
2023-04-22T17:13:23.397Z,2.43
2023-04-22T17:15:51.177Z,2.30
2023-04-22T17:18:20.471Z,2.67
2023-04-22T17:20:49.042Z,2.47
2023-04-22T17:23:17.404Z,2.63
2023-04-22T17:25:46.893Z,2.80
2023-04-22T17:28:14.690Z,2.60
2023-04-22T17:30:42.507Z,2.50
2023-04-22T17:33:10.610Z,2.50
2023-04-22T17:35:39.896Z,2.70
2023-04-22T17:38:08.188Z,2.57
2023-04-22T17:40:36.021Z,2.63
2023-04-22T17:43:03.846Z,2.90
2023-04-22T17:45:32.273Z,2.70
2023-04-22T17:47:59.968Z,2.47
2023-04-22T17:50:27.871Z,3.13
2023-04-22T17:52:57.052Z,3.27
2023-04-22T17:55:24.826Z,3.30
2023-04-22T17:57:52.549Z,3.10
2023-04-22T18:00:20.677Z,3.50
2023-04-22T18:02:48.855Z,3.17
2023-04-22T18:05:16.699Z,3.50
2023-04-22T18:07:44.466Z,3.63
2023-04-22T18:10:13.788Z,3.70
2023-04-22T18:12:43.163Z,3.53
2023-04-22T18:15:11.422Z,3.03
2023-04-22T18:17:39.133Z,3.93
2023-04-22T18:20:17.456Z,3.80
2023-04-22T18:22:46.928Z,3.33
2023-04-22T18:25:16.486Z,3.23
2023-04-22T18:27:44.580Z,3.10
2023-04-22T18:30:12.655Z,3.53
2023-04-22T18:32:40.518Z,3.17
2023-04-22T18:35:09.398Z,3.90
2023-04-22T18:37:37.190Z,3.53
2023-04-22T18:40:05.863Z,3.70
2023-04-22T18:42:35.166Z,3.87
2023-04-22T18:45:04.794Z,4.17
2023-04-22T18:47:33.047Z,4.17
2023-04-22T18:50:01.563Z,4.50
2023-04-22T18:52:29.347Z,5.73
2023-04-22T18:54:57.313Z,6.47
2023-04-22T18:57:25.292Z,5.30
2023-04-22T18:59:55.021Z,4.87
2023-04-22T19:02:23.040Z,5.43
2023-04-22T19:04:51.033Z,6.37
2023-04-22T19:07:21.052Z,6.07
2023-04-22T19:09:48.828Z,5.03
2023-04-22T19:12:19.002Z,5.80
2023-04-22T19:14:48.441Z,4.87
2023-04-22T19:17:17.703Z,5.70
2023-04-22T19:19:46.508Z,5.47
2023-04-22T19:22:16.222Z,5.97
2023-04-22T19:24:44.053Z,6.10
2023-04-22T19:27:13.002Z,6.43
2023-04-22T19:29:41.560Z,7.00
2023-04-22T19:32:10.876Z,8.33
2023-04-22T19:34:40.488Z,7.20
2023-04-22T19:37:08.382Z,7.73
2023-04-22T19:39:36.430Z,7.83
2023-04-22T19:42:04.459Z,8.50
2023-04-22T19:44:32.636Z,8.67
2023-04-22T19:47:00.878Z,10.07
2023-04-22T19:49:31.136Z,9.63
2023-04-22T19:52:02.350Z,10.00
2023-04-22T19:54:30.753Z,9.67
2023-04-22T19:56:59.008Z,9.20
2023-04-22T19:59:28.058Z,9.33
2023-04-22T20:01:56.278Z,9.67
2023-04-22T20:04:24.620Z,10.10
2023-04-22T20:06:53.333Z,9.43
2023-04-22T20:09:22.877Z,8.83
2023-04-22T20:11:51.259Z,9.43
2023-04-22T20:14:19.495Z,9.70
2023-04-22T20:16:47.835Z,10.03
2023-04-22T20:19:16.023Z,10.40
2023-04-22T20:21:44.392Z,10.93
2023-04-22T20:24:19.122Z,11.40
2023-04-22T20:26:49.647Z,11.30
2023-04-22T20:29:18.577Z,10.77
2023-04-22T20:31:46.815Z,11.50
2023-04-22T20:34:14.781Z,11.57
2023-04-22T20:36:44.209Z,11.07
2023-04-22T20:39:14.244Z,11.33
2023-04-22T20:41:42.646Z,10.80
2023-04-22T20:44:12.185Z,11.60
2023-04-22T20:46:40.143Z,11.13
2023-04-22T20:49:08.443Z,11.10
2023-04-22T20:51:36.969Z,11.30
2023-04-22T20:54:07.819Z,10.80
2023-04-22T20:56:39.801Z,11.10
2023-04-22T20:59:07.586Z,11.53
2023-04-22T21:01:36.939Z,11.30
2023-04-22T21:04:05.491Z,10.77
2023-04-22T21:06:35.087Z,11.43
2023-04-22T21:09:04.408Z,10.33
2023-04-22T21:11:32.710Z,10.20
2023-04-22T21:14:01.164Z,11.00
2023-04-22T21:16:31.731Z,11.13
2023-04-22T21:19:01.809Z,10.43
2023-04-22T21:21:33.695Z,11.20
2023-04-22T21:24:02.187Z,10.97
2023-04-22T21:26:30.638Z,11.80
2023-04-22T21:29:00.758Z,11.10
2023-04-22T21:31:28.648Z,11.47
2023-04-22T21:33:56.454Z,12.17
2023-04-22T21:36:26.369Z,11.40
2023-04-22T21:38:54.853Z,12.70
2023-04-22T21:41:23.384Z,12.73
2023-04-22T21:43:51.178Z,11.10
2023-04-22T21:46:20.014Z,11.43
2023-04-22T21:48:47.754Z,12.00
2023-04-22T21:51:15.602Z,11.67
2023-04-22T21:53:45.290Z,11.43
2023-04-22T21:56:13.237Z,11.00
2023-04-22T21:58:41.187Z,11.27
2023-04-22T22:01:09.096Z,10.90
2023-04-22T22:03:37.136Z,10.83
2023-04-22T22:06:05.330Z,11.30
2023-04-22T22:08:33.199Z,11.63
2023-04-22T22:11:07.049Z,11.03
2023-04-22T22:13:37.016Z,10.23
2023-04-22T22:16:04.901Z,10.63
2023-04-22T22:18:32.692Z,11.17
2023-04-22T22:21:00.961Z,11.43
2023-04-22T22:23:28.744Z,11.43
2023-04-22T22:25:56.753Z,11.80
2023-04-22T22:28:26.178Z,11.97
2023-04-22T22:30:59.574Z,11.43
2023-04-22T22:33:27.342Z,11.17
2023-04-22T22:35:55.199Z,11.33
2023-04-22T22:38:24.681Z,12.33
2023-04-22T22:40:52.410Z,11.37
2023-04-22T22:43:22.870Z,12.43
2023-04-22T22:45:55.096Z,12.43
2023-04-22T22:48:22.874Z,11.90
2023-04-22T22:50:50.674Z,11.73
2023-04-22T22:53:18.496Z,12.90
2023-04-22T22:55:46.300Z,12.00
2023-04-22T22:58:13.988Z,12.30
2023-04-22T23:00:42.033Z,12.83
2023-04-22T23:03:11.406Z,13.43
2023-04-22T23:05:39.735Z,13.50
2023-04-22T23:08:07.894Z,12.83
2023-04-22T23:10:36.686Z,13.47
2023-04-22T23:13:04.784Z,12.77
2023-04-22T23:15:32.575Z,13.60
2023-04-22T23:18:00.673Z,13.77
2023-04-22T23:20:29.950Z,13.37
2023-04-22T23:22:57.746Z,14.77
2023-04-22T23:25:27.508Z,14.77
2023-04-22T23:27:56.057Z,14.23
2023-04-22T23:30:24.815Z,14.73
2023-04-22T23:32:53.209Z,14.77
2023-04-22T23:35:21.679Z,14.77
2023-04-22T23:37:52.209Z,15.50
2023-04-22T23:40:19.984Z,16.47
2023-04-22T23:42:48.331Z,14.50
2023-04-22T23:45:16.362Z,16.67
2023-04-22T23:47:44.196Z,15.73
2023-04-22T23:50:15.905Z,16.53
2023-04-22T23:52:43.874Z,16.67
2023-04-22T23:55:15.864Z,16.93
2023-04-22T23:57:44.054Z,17.53
